Time;durP1;ratioP1;P1;durP2;ratioP2;P2;SDS_P1;SDS_P2;PMS_P1;PMS_P2;Temp;Humidity;BMP_temperature;BMP_pressure;BME280_temperature;BME280_humidity;BME280_pressure;Samples;Min_cycle;Max_cycle;Signal;HPM_P1;HPM_P2
2022/07/30 00:00:55;;;;;;;2.10;1.40;;;;;;;17.25;54.66;100817.21;84229;1336;22836;-70
2022/07/30 00:03:04;;;;;;;4.00;2.00;;;;;;;17.25;54.52;100816.86;84223;1338;22861;-68
2022/07/30 00:05:13;;;;;;;3.90;2.40;;;;;;;17.25;54.69;100815.98;84213;1338;22596;-69
2022/07/30 00:07:22;;;;;;;9.70;4.00;;;;;;;17.25;54.60;100813.67;84255;1338;22570;-72
2022/07/30 00:09:31;;;;;;;22.20;9.00;;;;;;;17.25;54.58;100817.38;84224;1337;22600;-71
2022/07/30 00:11:40;;;;;;;30.70;11.90;;;;;;;17.26;54.65;100816.46;84225;1334;22845;-71
2022/07/30 00:13:49;;;;;;;23.40;10.50;;;;;;;17.27;54.48;100812.54;84222;1338;22649;-70
2022/07/30 00:15:57;;;;;;;26.30;11.00;;;;;;;17.28;54.62;100813.70;84197;1338;22751;-70
2022/07/30 00:18:06;;;;;;;19.00;8.70;;;;;;;17.28;54.71;100809.80;84202;1339;23994;-70
2022/07/30 00:20:18;;;;;;;20.40;7.90;;;;;;;17.28;54.91;100812.11;84216;1340;24976;-71
2022/07/30 00:22:28;;;;;;;15.20;6.70;;;;;;;17.27;54.95;100812.85;84208;1339;24000;-69
2022/07/30 00:24:36;;;;;;;19.00;8.90;;;;;;;17.26;55.02;100817.00;84210;1338;24247;-70
2022/07/30 00:26:45;;;;;;;15.20;7.40;;;;;;;17.25;55.02;100812.84;84208;1338;22843;-69
2022/07/30 00:28:55;;;;;;;18.70;7.70;;;;;;;17.24;55.17;100802.50;84207;1334;22614;-70
2022/07/30 00:31:04;;;;;;;19.80;7.60;;;;;;;17.23;55.11;100795.29;84211;1338;22625;-70
2022/07/30 00:33:13;;;;;;;20.20;8.40;;;;;;;17.22;55.31;100793.42;84207;1337;22961;-71
2022/07/30 00:35:23;;;;;;;13.80;7.20;;;;;;;17.20;55.19;100789.51;84232;1338;22677;-71
2022/07/30 00:37:31;;;;;;;18.60;7.80;;;;;;;17.18;55.40;100784.48;84223;1337;22630;-70
2022/07/30 00:39:41;;;;;;;21.70;7.20;;;;;;;17.17;55.54;100784.02;84238;1338;22678;-72
2022/07/30 00:42:04;;;;;;;14.60;5.50;;;;;;;17.15;55.45;100772.89;84206;1338;25350;-72
2022/07/30 00:44:12;;;;;;;11.90;5.10;;;;;;;17.13;55.51;100774.20;84223;1338;22600;-72
2022/07/30 00:46:22;;;;;;;8.90;3.90;;;;;;;17.12;55.46;100771.62;84243;1339;22625;-70
2022/07/30 00:48:31;;;;;;;10.20;5.10;;;;;;;17.12;55.70;100770.41;84233;1338;23979;-69
2022/07/30 00:50:40;;;;;;;14.10;6.20;;;;;;;17.10;55.87;100772.27;84247;1339;24276;-70
2022/07/30 00:52:49;;;;;;;22.60;6.30;;;;;;;17.09;55.83;100775.34;84233;1338;24291;-69
2022/07/30 00:54:58;;;;;;;13.90;7.00;;;;;;;17.08;55.95;100772.39;84210;1338;22812;-68
2022/07/30 00:57:12;;;;;;;15.00;7.30;;;;;;;17.08;56.25;100767.30;84208;1338;22621;-69
2022/07/30 00:59:26;;;;;;;13.60;7.40;;;;;;;17.06;56.37;100764.41;84209;1338;22611;-69
2022/07/30 01:01:39;;;;;;;12.90;6.10;;;;;;;17.05;56.57;100760.04;84232;1339;22599;-69
2022/07/30 01:03:48;;;;;;;8.40;4.90;;;;;;;17.04;56.69;100759.93;84225;1338;24410;-69
2022/07/30 01:05:57;;;;;;;16.30;5.20;;;;;;;17.02;56.68;100756.68;84184;1338;24068;-71
2022/07/30 01:08:06;;;;;;;10.40;4.80;;;;;;;17.00;56.73;100760.17;84118;1339;24248;-69
2022/07/30 01:10:16;;;;;;;12.90;6.70;;;;;;;16.98;56.75;100757.25;84116;1339;25311;-71
2022/07/30 01:12:25;;;;;;;;;;;;;;;16.98;56.96;100755.17;84118;1334;23909;-69
2022/07/30 01:14:34;;;;;;;15.30;5.80;;;;;;;16.95;57.33;100757.66;84111;1340;22643;-68
2022/07/30 01:16:44;;;;;;;12.50;6.60;;;;;;;16.94;57.48;100752.41;84107;1341;25492;-70
2022/07/30 01:21:21;;;;;;;7.80;3.40;;;;;;;16.90;57.51;100746.99;84105;1340;23246;-69
2022/07/30 01:23:35;;;;;;;8.70;3.90;;;;;;;16.90;57.42;100744.20;84097;1339;25386;-71
2022/07/30 01:25:58;;;;;;;12.30;4.60;;;;;;;16.89;57.58;100742.28;84145;1341;22631;-69
2022/07/30 01:28:10;;;;;;;6.40;3.30;;;;;;;16.89;57.75;100747.39;84122;1341;22600;-70
2022/07/30 01:30:21;;;;;;;6.50;3.70;;;;;;;16.88;57.63;100744.63;84133;1339;22720;-69
2022/07/30 01:32:30;;;;;;;8.00;3.10;;;;;;;16.88;57.68;100739.86;84092;1341;23978;-68
2022/07/30 01:34:39;;;;;;;9.40;4.30;;;;;;;16.89;57.93;100739.48;84062;1341;22602;-70
2022/07/30 01:36:49;;;;;;;5.60;3.70;;;;;;;16.89;57.99;100737.36;84122;1340;22593;-70
2022/07/30 01:38:58;;;;;;;6.00;3.10;;;;;;;16.89;58.08;100739.29;84140;1340;24245;-71
2022/07/30 01:41:07;;;;;;;4.90;3.00;;;;;;;16.90;58.11;100738.93;84149;1335;22587;-71
2022/07/30 01:43:16;;;;;;;6.90;3.10;;;;;;;16.89;58.11;100734.02;84156;1340;22648;-71
2022/07/30 01:45:25;;;;;;;3.40;2.60;;;;;;;16.89;58.07;100725.38;84111;1340;22688;-71
2022/07/30 01:47:34;;;;;;;5.90;2.10;;;;;;;16.90;58.17;100720.25;84128;1336;22586;-72
2022/07/30 01:49:43;;;;;;;7.00;3.00;;;;;;;16.90;58.15;100715.11;84131;1339;22606;-71
2022/07/30 01:51:52;;;;;;;1.90;1.60;;;;;;;16.90;58.20;100706.63;84126;1340;22636;-71
2022/07/30 01:54:01;;;;;;;7.30;2.50;;;;;;;16.91;58.19;100706.96;84104;1339;25429;-70
2022/07/30 01:56:09;;;;;;;11.30;1.50;;;;;;;16.90;58.34;100702.41;84134;1340;22605;-70
2022/07/30 01:58:20;;;;;;;3.70;1.60;;;;;;;16.91;58.37;100700.64;84098;1340;24252;-71
2022/07/30 02:00:30;;;;;;;2.90;1.60;;;;;;;16.90;58.67;100697.48;84126;1340;22613;-70
2022/07/30 02:02:40;;;;;;;5.10;1.30;;;;;;;16.90;58.63;100693.09;84109;1340;22595;-69
2022/07/30 02:04:49;;;;;;;1.70;1.20;;;;;;;16.90;58.75;100695.04;84106;1337;22632;-71
2022/07/30 02:07:03;;;;;;;2.70;1.20;;;;;;;16.89;58.81;100695.23;84113;1338;22721;-68
2022/07/30 02:09:14;;;;;;;4.00;1.20;;;;;;;16.90;58.94;100694.16;84168;1338;23738;-71
2022/07/30 02:13:56;;;;;;;2.90;1.90;;;;;;;16.90;58.94;100690.63;84220;1338;22728;-69
2022/07/30 02:16:09;;;;;;;2.90;1.20;;;;;;;16.91;58.85;100687.06;84195;1338;22709;-69
2022/07/30 02:18:20;;;;;;;1.70;1.00;;;;;;;16.91;59.10;100684.02;84083;1340;24451;-69
2022/07/30 02:20:30;;;;;;;2.70;1.30;;;;;;;16.90;59.15;100684.60;84174;1335;22943;-70
2022/07/30 02:22:41;;;;;;;2.00;1.10;;;;;;;16.90;59.35;100686.94;84213;1338;22691;-70
2022/07/30 02:24:50;;;;;;;1.30;1.10;;;;;;;16.89;59.21;100688.21;84110;1340;22619;-70
2022/07/30 02:27:02;;;;;;;2.60;1.80;;;;;;;16.88;59.29;100684.71;84195;1338;25300;-70
2022/07/30 02:29:10;;;;;;;3.50;1.30;;;;;;;16.87;59.37;100684.95;84229;1338;23802;-70
2022/07/30 02:31:23;;;;;;;1.40;1.30;;;;;;;16.88;59.36;100686.00;84186;1339;22857;-70
2022/07/30 02:33:36;;;;;;;1.50;1.00;;;;;;;16.87;59.37;100680.77;84202;1337;22586;-70
2022/07/30 02:35:45;;;;;;;2.00;1.40;;;;;;;16.86;59.48;100680.65;84192;1339;24338;-68
2022/07/30 02:37:54;;;;;;;2.60;1.40;;;;;;;16.85;59.54;100675.06;84169;1338;22609;-69
2022/07/30 02:40:03;;;;;;;4.70;1.40;;;;;;;16.85;59.54;100671.02;84197;1338;22598;-70
2022/07/30 02:42:12;;;;;;;2.50;1.00;;;;;;;16.85;59.63;100669.95;84177;1338;24499;-70
2022/07/30 02:44:20;;;;;;;7.10;2.30;;;;;;;16.85;59.73;100668.73;84199;1339;25496;-70
2022/07/30 02:46:30;;;;;;;2.50;1.30;;;;;;;16.85;59.99;100666.41;84172;1339;26830;-70
2022/07/30 02:48:38;;;;;;;4.90;1.70;;;;;;;16.86;59.88;100663.42;84190;1338;22568;-69
2022/07/30 02:50:47;;;;;;;8.90;3.90;;;;;;;16.86;59.91;100661.80;84187;1335;22617;-68
2022/07/30 02:52:56;;;;;;;7.50;4.00;;;;;;;16.86;59.94;100660.75;84175;1338;25648;-68
2022/07/30 02:55:09;;;;;;;13.80;6.70;;;;;;;16.87;59.93;100655.17;84191;1338;22600;-70
2022/07/30 02:57:18;;;;;;;14.80;6.60;;;;;;;16.89;59.88;100653.48;84197;1338;24233;-70
2022/07/30 02:59:27;;;;;;;7.20;3.90;;;;;;;16.89;60.18;100651.71;84225;1338;23975;-70
2022/07/30 03:01:36;;;;;;;5.60;2.50;;;;;;;16.87;60.17;100649.00;84188;1341;25595;-71
2022/07/30 03:03:45;;;;;;;4.20;2.20;;;;;;;16.85;60.14;100645.44;84226;1335;22602;-71
2022/07/30 03:05:54;;;;;;;4.00;1.80;;;;;;;16.84;60.20;100639.52;84211;1338;22599;-70
2022/07/30 03:08:03;;;;;;;6.80;2.20;;;;;;;16.84;60.30;100641.32;84215;1338;22979;-70
2022/07/30 03:10:12;;;;;;;7.00;2.60;;;;;;;16.82;60.42;100639.14;84188;1338;22595;-70
2022/07/30 03:12:21;;;;;;;4.50;3.10;;;;;;;16.81;60.47;100637.59;84181;1338;22775;-71
2022/07/30 03:14:30;;;;;;;6.70;3.10;;;;;;;16.80;60.50;100632.02;84189;1338;24384;-70
2022/07/30 03:16:40;;;;;;;6.70;3.00;;;;;;;16.80;60.65;100633.98;84209;1339;22597;-70
2022/07/30 03:18:49;;;;;;;9.00;4.10;;;;;;;16.80;60.56;100633.94;84179;1337;22608;-70
2022/07/30 03:20:58;;;;;;;11.10;4.60;;;;;;;16.82;60.78;100641.61;84194;1338;22765;-70
2022/07/30 03:23:07;;;;;;;12.90;4.90;;;;;;;16.82;60.82;100643.50;84188;1338;23053;-70
2022/07/30 03:25:20;;;;;;;8.20;5.40;;;;;;;16.84;60.64;100638.30;84178;1337;24213;-70
2022/07/30 03:27:29;;;;;;;12.60;6.50;;;;;;;16.84;60.67;100636.16;84183;1334;22609;-70
2022/07/30 03:29:38;;;;;;;14.90;6.20;;;;;;;16.85;60.71;100631.73;84234;1340;22592;-70
2022/07/30 03:31:46;;;;;;;17.20;7.50;;;;;;;16.87;60.83;100632.83;84187;1338;23952;-70
2022/07/30 03:33:55;;;;;;;13.90;6.00;;;;;;;16.87;60.74;100634.36;84175;1334;22598;-69
2022/07/30 03:36:04;;;;;;;11.10;6.10;;;;;;;16.88;60.81;100628.52;84217;1338;22625;-69
2022/07/30 03:38:15;;;;;;;10.70;4.70;;;;;;;16.87;60.67;100622.08;84196;1339;22694;-71
2022/07/30 03:40:25;;;;;;;6.20;2.90;;;;;;;16.87;60.91;100622.98;84196;1338;22622;-69
2022/07/30 03:42:34;;;;;;;9.60;3.80;;;;;;;16.84;60.70;100622.25;84183;1338;23866;-71
2022/07/30 03:44:44;;;;;;;5.10;2.70;;;;;;;16.84;60.77;100622.98;83907;1339;435266;-69
2022/07/30 03:46:53;;;;;;;2.80;1.80;;;;;;;16.83;60.85;100617.58;84209;1332;22638;-70
2022/07/30 03:49:02;;;;;;;6.10;2.80;;;;;;;16.80;60.83;100620.75;84210;1338;22656;-70
2022/07/30 03:51:11;;;;;;;5.90;1.90;;;;;;;16.77;61.08;100617.20;84207;1338;23962;-70
2022/07/30 03:53:22;;;;;;;8.00;2.80;;;;;;;16.77;61.02;100621.98;84219;1340;24275;-69
2022/07/30 03:55:31;;;;;;;3.80;1.90;;;;;;;16.77;61.02;100623.22;84198;1338;22619;-69
2022/07/30 03:57:40;;;;;;;4.80;1.70;;;;;;;16.78;61.12;100624.57;84014;1342;22700;-70
2022/07/30 03:59:51;;;;;;;6.80;2.10;;;;;;;16.78;61.21;100628.40;84062;1341;22986;-72
2022/07/30 04:02:01;;;;;;;;;;;;;;;16.80;61.20;100637.64;84194;1338;22875;-71
2022/07/30 04:04:10;;;;;;;3.90;2.40;;;;;;;16.80;61.12;100639.93;84215;1341;22650;-70
2022/07/30 04:06:19;;;;;;;2.90;1.80;;;;;;;16.83;61.18;100642.73;84179;1338;26539;-70
2022/07/30 04:08:28;;;;;;;4.00;1.90;;;;;;;16.84;61.23;100645.86;84195;1339;22652;-69
2022/07/30 04:10:37;;;;;;;10.20;1.70;;;;;;;16.86;61.18;100647.02;84183;1342;22601;-71
2022/07/30 04:12:46;;;;;;;4.30;1.80;;;;;;;16.86;61.26;100645.98;84195;1338;26017;-72
2022/07/30 04:14:56;;;;;;;4.80;1.70;;;;;;;16.87;61.24;100645.20;84185;1338;21819;-71
2022/07/30 04:17:05;;;;;;;;;;;;;;;16.87;61.53;100646.23;84191;1339;22745;-71
2022/07/30 04:19:18;;;;;;;10.10;3.30;;;;;;;16.84;61.56;100646.05;84201;1339;22726;-70
2022/07/30 04:21:27;;;;;;;4.40;2.60;;;;;;;16.84;61.66;100646.23;84214;1338;22639;-70
2022/07/30 04:23:36;;;;;;;5.50;3.10;;;;;;;16.86;61.52;100644.83;84192;1338;25280;-70
2022/07/30 04:25:45;;;;;;;5.10;2.40;;;;;;;16.91;61.59;100645.64;84183;1338;26813;-69
2022/07/30 04:27:54;;;;;;;8.80;2.20;;;;;;;16.96;61.65;100643.73;84190;1333;22576;-69
2022/07/30 04:30:03;;;;;;;4.40;1.70;;;;;;;17.02;61.58;100642.67;84171;1338;22615;-69
2022/07/30 04:32:12;;;;;;;6.60;1.80;;;;;;;17.08;61.48;100637.02;84181;1338;22874;-71
2022/07/30 04:34:21;;;;;;;5.70;1.40;;;;;;;17.14;61.49;100633.83;84189;1338;22659;-70
2022/07/30 04:36:30;;;;;;;7.70;1.60;;;;;;;17.20;61.27;100626.61;84180;1338;22609;-71
2022/07/30 04:38:39;;;;;;;2.80;1.70;;;;;;;17.23;61.47;100627.23;84188;1338;22601;-70
2022/07/30 04:40:48;;;;;;;7.10;1.90;;;;;;;17.25;61.40;100624.49;84060;1340;24136;-70
2022/07/30 04:42:56;;;;;;;1.70;1.50;;;;;;;17.26;61.37;100623.38;84089;1341;22619;-71
2022/07/30 04:45:07;;;;;;;2.50;1.30;;;;;;;17.30;61.44;100625.83;84187;1338;22686;-70
2022/07/30 04:47:16;;;;;;;2.10;1.80;;;;;;;17.34;61.32;100621.30;84189;1338;25660;-69
2022/07/30 04:49:24;;;;;;;3.80;1.50;;;;;;;17.39;61.34;100622.26;84202;1337;25438;-70
2022/07/30 04:51:36;;;;;;;2.80;1.80;;;;;;;17.43;61.17;100620.38;84186;1339;22624;-70
2022/07/30 04:53:45;;;;;;;4.20;1.60;;;;;;;17.48;61.29;100621.12;84195;1338;22597;-70
2022/07/30 04:55:54;;;;;;;2.60;1.30;;;;;;;17.50;61.05;100623.27;84182;1339;22736;-70
2022/07/30 04:58:03;;;;;;;6.20;1.70;;;;;;;17.50;61.16;100624.35;84160;1338;23781;-70
2022/07/30 05:00:14;;;;;;;4.60;1.60;;;;;;;17.53;60.99;100625.77;84204;1339;22683;-71
2022/07/30 05:02:24;;;;;;;1.80;1.30;;;;;;;17.54;60.91;100625.34;84196;1338;22691;-69
2022/07/30 05:04:34;;;;;;;3.30;1.40;;;;;;;17.56;60.86;100624.16;84225;1338;22678;-69
2022/07/30 05:06:43;;;;;;;3.30;1.90;;;;;;;17.59;60.92;100622.41;84182;1338;22593;-69
2022/07/30 05:08:52;;;;;;;3.20;1.40;;;;;;;17.61;60.85;100619.27;84075;1343;24284;-70
2022/07/30 05:11:01;;;;;;;3.00;2.20;;;;;;;17.64;60.88;100612.05;84185;1338;22614;-71
2022/07/30 05:13:13;;;;;;;3.70;1.70;;;;;;;17.64;60.93;100612.93;84194;1339;22615;-70
2022/07/30 05:15:23;;;;;;;7.90;1.80;;;;;;;17.63;61.15;100611.02;84211;1339;25484;-70
2022/07/30 05:17:32;;;;;;;4.10;1.90;;;;;;;17.63;61.00;100617.39;84176;1338;22616;-72
2022/07/30 05:19:41;;;;;;;5.00;2.00;;;;;;;17.64;60.97;100621.75;84125;1341;22848;-70
2022/07/30 05:21:50;;;;;;;6.90;3.10;;;;;;;17.67;61.06;100619.94;84172;1338;25465;-70
2022/07/30 05:23:59;;;;;;;4.60;2.10;;;;;;;17.69;60.95;100618.08;84239;1338;23953;-71
2022/07/30 05:26:08;;;;;;;10.40;3.00;;;;;;;17.72;61.03;100618.20;84078;1337;23285;-70
2022/07/30 05:28:21;;;;;;;4.80;2.10;;;;;;;17.76;60.94;100618.16;84186;1339;22618;-69
2022/07/30 05:30:30;;;;;;;4.50;2.40;;;;;;;17.78;60.83;100619.23;84185;1338;25498;-70
2022/07/30 05:32:39;;;;;;;5.90;2.30;;;;;;;17.80;60.70;100616.67;84200;1338;24247;-69
2022/07/30 05:34:48;;;;;;;10.80;3.40;;;;;;;17.82;60.66;100615.45;84188;1337;22613;-69
2022/07/30 05:36:57;;;;;;;8.50;3.30;;;;;;;17.85;60.66;100611.44;84192;1338;22602;-71
2022/07/30 05:39:05;;;;;;;5.30;3.40;;;;;;;17.86;60.63;100616.44;84197;1333;22598;-70
2022/07/30 05:41:14;;;;;;;9.10;3.30;;;;;;;17.87;60.72;100616.22;84182;1338;22699;-69
2022/07/30 05:43:22;;;;;;;6.80;3.30;;;;;;;17.88;60.74;100615.84;84183;1342;24286;-72
2022/07/30 05:45:34;;;;;;;9.70;3.60;;;;;;;17.88;60.88;100610.86;84188;1338;22617;-69
2022/07/30 05:47:45;;;;;;;6.50;4.00;;;;;;;17.86;60.93;100615.41;84205;1337;23996;-68
2022/07/30 05:50:02;;;;;;;6.40;3.20;;;;;;;17.82;60.74;100610.91;84186;1338;22594;-70
2022/07/30 05:52:14;;;;;;;5.30;3.10;;;;;;;17.80;60.87;100608.58;84170;1341;22938;-71
2022/07/30 05:54:23;;;;;;;7.80;4.40;;;;;;;17.78;61.05;100606.88;84241;1340;22622;-71
2022/07/30 05:56:32;;;;;;;7.30;4.30;;;;;;;17.77;61.22;100605.88;84205;1338;22663;-70
2022/07/30 05:58:41;;;;;;;9.80;4.30;;;;;;;17.76;61.64;100608.45;84227;1339;22729;-70
2022/07/30 06:00:50;;;;;;;13.10;4.60;;;;;;;17.71;61.92;100605.02;84200;1338;22589;-70
2022/07/30 06:02:59;;;;;;;16.10;5.90;;;;;;;17.67;61.87;100602.80;84197;1338;22566;-70
2022/07/30 06:05:08;;;;;;;11.80;6.00;;;;;;;17.67;61.94;100601.42;84208;1338;22736;-69
2022/07/30 06:07:17;;;;;;;15.20;7.90;;;;;;;17.67;62.01;100600.21;84181;1338;22610;-69
2022/07/30 06:09:27;;;;;;;11.20;6.50;;;;;;;17.67;62.22;100600.72;84188;1338;25459;-70
2022/07/30 06:11:35;;;;;;;12.60;6.60;;;;;;;17.68;62.06;100600.66;84191;1338;22677;-71
2022/07/30 06:13:44;;;;;;;13.20;6.30;;;;;;;17.70;62.18;100599.62;84178;1340;22626;-71
2022/07/30 06:15:53;;;;;;;13.80;7.70;;;;;;;17.75;62.30;100603.05;84209;1338;25427;-71
2022/07/30 06:18:02;;;;;;;10.70;5.40;;;;;;;17.79;62.15;100605.45;84160;1338;22916;-70
2022/07/30 06:20:14;;;;;;;8.90;5.60;;;;;;;17.81;62.14;100610.10;84189;1338;23984;-71
2022/07/30 06:22:23;;;;;;;10.40;6.20;;;;;;;17.84;62.06;100608.14;84191;1339;24318;-70
2022/07/30 06:24:31;;;;;;;15.30;5.30;;;;;;;17.87;62.02;100605.41;84215;1336;22610;-70
2022/07/30 06:26:40;;;;;;;12.20;5.30;;;;;;;17.91;61.89;100604.13;84178;1334;22657;-69
2022/07/30 06:28:49;;;;;;;12.40;5.50;;;;;;;17.93;61.98;100603.81;84196;1338;26515;-72
2022/07/30 06:30:58;;;;;;;9.20;4.10;;;;;;;17.98;61.93;100603.86;84194;1338;22619;-71
2022/07/30 06:33:06;;;;;;;6.80;2.60;;;;;;;18.03;61.93;100601.08;84197;1338;24073;-69
2022/07/30 06:35:15;;;;;;;3.80;2.10;;;;;;;18.08;61.72;100600.23;84210;1341;23932;-71
2022/07/30 06:37:24;;;;;;;8.20;2.70;;;;;;;18.12;61.72;100601.34;84201;1338;23963;-71
2022/07/30 06:39:33;;;;;;;3.20;1.90;;;;;;;18.18;61.63;100594.47;84214;1338;22187;-72
2022/07/30 06:41:41;;;;;;;6.80;2.60;;;;;;;18.22;61.87;100589.05;84206;1339;22619;-70
2022/07/30 06:43:51;;;;;;;5.70;2.30;;;;;;;18.26;61.75;100586.10;84213;1339;23946;-71
2022/07/30 06:45:59;;;;;;;5.30;2.60;;;;;;;18.35;61.78;100585.16;84204;1338;22619;-71
2022/07/30 06:48:09;;;;;;;7.10;2.80;;;;;;;18.42;61.80;100585.38;84202;1340;22592;-71
2022/07/30 06:50:19;;;;;;;9.50;3.60;;;;;;;18.50;61.45;100589.96;84194;1340;25404;-71
2022/07/30 06:52:27;;;;;;;11.70;5.90;;;;;;;18.54;61.08;100589.02;84168;1337;22626;-71
2022/07/30 06:54:36;;;;;;;21.40;7.00;;;;;;;18.54;60.75;100588.33;84159;1337;22639;-69
2022/07/30 06:56:44;;;;;;;17.60;7.50;;;;;;;18.54;60.76;100585.67;84196;1337;24275;-69
2022/07/30 06:58:53;;;;;;;12.40;5.20;;;;;;;18.57;60.76;100584.77;84214;1338;22852;-71
2022/07/30 07:01:02;;;;;;;10.60;5.20;;;;;;;18.57;60.83;100582.96;84164;1338;26601;-72
2022/07/30 07:03:11;;;;;;;9.30;5.30;;;;;;;18.56;60.76;100579.30;84147;1338;23998;-69
2022/07/30 07:05:21;;;;;;;7.50;4.50;;;;;;;18.57;60.83;100575.74;84199;1342;22620;-70
2022/07/30 07:07:30;;;;;;;16.80;5.00;;;;;;;18.58;60.89;100572.67;84173;1338;22644;-71
2022/07/30 07:09:42;;;;;;;19.10;6.00;;;;;;;18.58;60.98;100569.88;84185;1339;22592;-69
2022/07/30 07:11:51;;;;;;;14.00;5.60;;;;;;;18.61;61.13;100572.44;84180;1339;22615;-74
2022/07/30 07:14:00;;;;;;;9.90;4.50;;;;;;;18.63;61.04;100575.19;84126;1338;23108;-71
2022/07/30 07:16:23;;;;;;;8.50;4.30;;;;;;;18.61;60.98;100576.00;84190;1338;22590;-69
2022/07/30 07:18:32;;;;;;;7.60;4.40;;;;;;;18.60;60.83;100571.64;84172;1339;22600;-70
2022/07/30 07:20:42;;;;;;;7.20;4.10;;;;;;;18.63;60.97;100565.11;84191;1339;23870;-71
2022/07/30 07:22:51;;;;;;;9.20;3.40;;;;;;;18.68;61.06;100561.19;84227;1339;24254;-69
2022/07/30 07:25:00;;;;;;;7.60;2.90;;;;;;;18.72;61.00;100553.16;84232;1337;25245;-69
2022/07/30 07:27:10;;;;;;;5.30;3.70;;;;;;;18.76;60.97;100551.66;84211;1336;25344;-71
2022/07/30 07:29:17;;;;;;;;;;;;;;;18.78;61.05;100549.76;84227;1338;23925;-70
2022/07/30 07:31:26;;;;;;;18.10;8.00;;;;;;;18.77;60.94;100548.60;84176;1338;24258;-70
2022/07/30 07:33:39;;;;;;;21.00;9.30;;;;;;;18.77;60.98;100548.42;84210;1339;25606;-68
2022/07/30 07:35:48;;;;;;;19.50;9.30;;;;;;;18.76;61.01;100549.16;84201;1338;22913;-71
2022/07/30 07:37:57;;;;;;;28.00;10.40;;;;;;;18.76;61.17;100549.36;84197;1337;23959;-72
2022/07/30 07:40:07;;;;;;;24.70;9.70;;;;;;;18.78;61.36;100549.38;84198;1338;22732;-69
2022/07/30 07:42:16;;;;;;;28.60;10.30;;;;;;;18.81;61.27;100553.98;84212;1337;25472;-69
2022/07/30 07:44:24;;;;;;;18.30;7.80;;;;;;;18.84;61.41;100556.42;84113;1342;22597;-70
2022/07/30 07:46:33;;;;;;;24.60;9.90;;;;;;;18.92;61.58;100555.88;84189;1342;23901;-71
2022/07/30 07:48:42;;;;;;;22.20;8.80;;;;;;;19.04;61.50;100561.00;84191;1339;22737;-68
2022/07/30 07:50:51;;;;;;;15.50;5.70;;;;;;;19.13;61.30;100560.58;84195;1338;25464;-69
2022/07/30 07:53:03;;;;;;;8.70;4.30;;;;;;;19.23;61.16;100555.39;84138;1338;24141;-69
2022/07/30 07:55:13;;;;;;;12.60;5.80;;;;;;;19.37;60.95;100553.77;84148;1338;22744;-71
2022/07/30 07:57:24;;;;;;;12.90;4.90;;;;;;;19.52;61.11;100550.33;84200;1338;22733;-70
2022/07/30 07:59:33;;;;;;;8.10;3.50;;;;;;;19.68;61.01;100554.48;84212;1339;24288;-68
2022/07/30 08:01:42;;;;;;;6.30;2.30;;;;;;;19.81;60.41;100553.20;84167;1341;22593;-71
2022/07/30 08:03:50;;;;;;;2.60;2.10;;;;;;;19.91;60.02;100552.27;84206;1341;22612;-69
2022/07/30 08:06:01;;;;;;;11.10;3.70;;;;;;;20.04;60.19;100541.77;84184;1341;24252;-69
2022/07/30 08:08:22;;;;;;;15.90;4.90;;;;;;;20.19;60.00;100538.30;84179;1339;22839;-68
2022/07/30 08:10:32;;;;;;;18.80;6.00;;;;;;;20.38;60.09;100536.88;84192;1339;22895;-69
2022/07/30 08:12:48;;;;;;;9.70;4.90;;;;;;;20.57;59.76;100532.64;84204;1339;22618;-69
2022/07/30 08:15:10;;;;;;;8.60;3.70;;;;;;;20.76;59.38;100534.84;84170;1341;24331;-69
2022/07/30 08:17:29;;;;;;;14.00;4.90;;;;;;;20.91;58.86;100534.40;84194;1337;22644;-69
2022/07/30 08:19:45;;;;;;;6.80;3.40;;;;;;;20.99;58.47;100534.50;84047;1341;22633;-68
2022/07/30 08:22:06;;;;;;;4.30;2.60;;;;;;;21.03;57.58;100528.09;83998;1341;22568;-67
2022/07/30 08:24:26;;;;;;;5.10;2.40;;;;;;;21.08;57.81;100525.27;84187;1339;22638;-67
2022/07/30 08:26:37;;;;;;;6.50;3.40;;;;;;;21.23;58.12;100526.70;84184;1338;22788;-67
2022/07/30 08:28:52;;;;;;;4.50;3.20;;;;;;;21.36;57.41;100525.52;84188;1333;22775;-69
2022/07/30 08:31:10;;;;;;;5.20;3.40;;;;;;;21.48;57.01;100523.48;84198;1339;22654;-68
2022/07/30 08:33:25;;;;;;;9.60;4.10;;;;;;;21.58;56.87;100523.04;84208;1336;24114;-69
2022/07/30 08:35:37;;;;;;;11.30;5.20;;;;;;;21.68;56.42;100523.64;84197;1338;22615;-68
2022/07/30 08:37:48;;;;;;;15.50;7.10;;;;;;;21.77;56.05;100524.83;84199;1339;22622;-69
2022/07/30 08:40:00;;;;;;;17.10;7.90;;;;;;;21.85;56.10;100523.45;84176;1342;22642;-70
2022/07/30 08:42:31;;;;;;;12.60;5.60;;;;;;;21.96;56.03;100516.86;84177;1338;23995;-67
2022/07/30 08:44:40;;;;;;;8.10;4.20;;;;;;;22.06;55.80;100512.63;84184;1339;23000;-68
2022/07/30 08:46:55;;;;;;;8.90;5.40;;;;;;;22.10;55.42;100516.02;84202;1338;22867;-70
2022/07/30 08:49:09;;;;;;;13.10;6.00;;;;;;;22.05;55.04;100512.68;84160;1338;24251;-68
2022/07/30 08:51:22;;;;;;;10.70;5.50;;;;;;;22.06;55.51;100510.67;84212;1338;22649;-69
2022/07/30 08:53:33;;;;;;;9.50;3.40;;;;;;;22.19;55.75;100511.08;84196;1340;22644;-70
2022/07/30 08:55:42;;;;;;;4.20;2.40;;;;;;;22.25;55.16;100511.79;84202;1338;23916;-70
2022/07/30 08:57:53;;;;;;;5.10;2.20;;;;;;;22.32;55.23;100513.83;84177;1339;22752;-67
2022/07/30 09:00:03;;;;;;;8.30;3.20;;;;;;;22.41;54.88;100506.16;84192;1338;24109;-69
2022/07/30 09:02:17;;;;;;;6.00;2.70;;;;;;;22.51;54.91;100509.23;84174;1338;22602;-68
2022/07/30 09:04:28;;;;;;;4.30;2.40;;;;;;;22.60;54.72;100508.05;84186;1338;22592;-68
2022/07/30 09:06:39;;;;;;;9.70;2.80;;;;;;;22.65;53.65;100507.96;84155;1340;24286;-69
2022/07/30 09:08:48;;;;;;;;;;;;;;;22.63;53.71;100508.83;84180;1338;22680;-69
2022/07/30 09:10:59;;;;;;;5.90;3.20;;;;;;;22.70;54.07;100507.20;84206;1339;23912;-69
2022/07/30 09:13:26;;;;;;;11.40;5.20;;;;;;;22.93;54.26;100513.90;84206;1338;22645;-69
2022/07/30 09:15:40;;;;;;;11.90;6.00;;;;;;;23.27;53.89;100505.23;84167;1338;22620;-69
2022/07/30 09:17:59;;;;;;;10.00;5.70;;;;;;;23.56;52.91;100504.61;84186;1341;22765;-68
2022/07/30 09:20:10;;;;;;;13.00;4.30;;;;;;;23.86;52.79;100502.77;84185;1338;24980;-69
2022/07/30 09:22:19;;;;;;;12.80;7.60;;;;;;;24.31;51.52;100502.13;84185;1338;22603;-69
2022/07/30 09:24:28;;;;;;;22.70;9.20;;;;;;;24.58;50.40;100496.27;84153;1334;22785;-70
2022/07/30 09:26:55;;;;;;;19.90;8.10;;;;;;;24.70;50.33;100494.41;84186;1338;22606;-68
2022/07/30 09:29:24;;;;;;;11.90;5.10;;;;;;;24.95;50.87;100497.23;84177;1338;23928;-68
2022/07/30 09:31:34;;;;;;;13.60;4.60;;;;;;;25.52;49.93;100499.80;84195;1338;22866;-68
2022/07/30 09:33:44;;;;;;;;;;;;;;;25.76;48.18;100499.09;84232;1338;22786;-68
2022/07/30 09:35:57;;;;;;;9.30;4.40;;;;;;;25.68;47.65;100498.04;84163;1338;23995;-67
2022/07/30 09:38:06;;;;;;;8.80;5.30;;;;;;;25.65;47.67;100505.17;84189;1337;22845;-67
2022/07/30 09:40:19;;;;;;;9.70;3.70;;;;;;;25.57;46.91;100504.13;84198;1339;23933;-67
2022/07/30 09:42:30;;;;;;;5.50;3.70;;;;;;;25.35;46.86;100505.46;84193;1336;22837;-68
2022/07/30 09:44:42;;;;;;;4.10;2.30;;;;;;;25.12;47.46;100501.21;84169;1338;24256;-68
2022/07/30 09:46:52;;;;;;;3.10;2.40;;;;;;;25.00;47.94;100503.45;84192;1339;22619;-67
2022/07/30 09:49:09;;;;;;;7.40;3.10;;;;;;;24.90;47.53;100498.57;84179;1338;24190;-69
2022/07/30 09:51:19;;;;;;;9.50;3.10;;;;;;;24.72;48.22;100499.15;84172;1337;22963;-68
2022/07/30 09:53:34;;;;;;;8.40;3.20;;;;;;;24.59;48.03;100496.73;84213;1338;22633;-68
2022/07/30 09:55:48;;;;;;;10.70;3.20;;;;;;;24.39;48.38;100494.46;84201;1338;25470;-68
2022/07/30 09:58:01;;;;;;;7.80;4.60;;;;;;;24.22;48.61;100493.60;84195;1338;23934;-67
2022/07/30 10:00:26;;;;;;;10.30;5.10;;;;;;;24.12;49.28;100491.59;84208;1338;24150;-69
2022/07/30 10:02:35;;;;;;;11.30;6.60;;;;;;;24.04;49.51;100494.52;84225;1338;24180;-69
2022/07/30 10:04:47;;;;;;;14.30;7.10;;;;;;;23.93;49.49;100493.75;84197;1339;24303;-69
2022/07/30 10:06:55;;;;;;;14.00;8.00;;;;;;;23.85;49.71;100490.59;84199;1337;25463;-70
2022/07/30 10:09:04;;;;;;;14.00;5.90;;;;;;;23.81;50.28;100485.79;84236;1337;26551;-67
2022/07/30 10:11:15;;;;;;;6.30;3.50;;;;;;;23.77;50.56;100487.39;84208;1338;23931;-67